Time;durP1;ratioP1;P1;durP2;ratioP2;P2;SDS_P1;SDS_P2;PMS_P1;PMS_P2;Temp;Humidity;BMP_temperature;BMP_pressure;BME280_temperature;BME280_humidity;BME280_pressure;Samples;Min_cycle;Max_cycle;Signal;HPM_P1;HPM_P2
2023/03/12 00:00:07;;;;;;;;;;;;;;;7.91;76.67;97982.88;108035;1254;61834;-63
2023/03/12 00:02:36;;;;;;;;;;;;;;;7.86;76.63;97995.42;108081;1254;61214;-62
2023/03/12 00:05:05;;;;;;;;;;;;;;;7.82;76.42;98002.33;108046;1254;74546;-62
2023/03/12 00:07:35;;;;;;;;;;;;;;;7.81;76.38;98003.31;108106;1254;72943;-63
2023/03/12 00:10:04;;;;;;;;;;;;;;;7.76;76.23;98001.71;107982;1254;72779;-64
2023/03/12 00:12:37;;;;;;;;;;;;;;;7.70;76.05;98001.26;107996;1254;61720;-62
2023/03/12 00:15:06;;;;;;;;;;;;;;;7.63;75.96;98002.20;108095;1254;61330;-63
2023/03/12 00:17:35;;;;;;;;;;;;;;;7.63;75.84;98002.16;108371;1254;74553;-63
2023/03/12 00:20:05;;;;;;;;;;;;;;;7.65;75.77;98000.69;108036;1254;73190;-64
2023/03/12 00:22:34;;;;;;;;;;;;;;;7.66;75.66;98007.20;108031;1258;72662;-63
2023/03/12 00:25:09;;;;;;;;;;;;;;;7.65;75.50;98008.18;108035;1254;61641;-63
2023/03/12 00:27:37;;;;;;;;;;;;;;;7.55;75.05;98010.21;108015;1254;61190;-63
2023/03/12 00:30:06;;;;;;;;;;;;;;;7.53;75.08;98018.27;108041;1254;74663;-63
2023/03/12 00:32:36;;;;;;;;;;;;;;;7.46;74.78;98025.10;108089;1254;70971;-63
2023/03/12 00:35:05;;;;;;;;;;;;;;;7.39;74.63;98018.66;108045;1259;73469;-66
2023/03/12 00:37:33;;;;;;;;;;;;;;;7.34;74.60;98031.15;108113;1254;61543;-65
2023/03/12 00:40:04;;;;;;;;;;;;;;;7.27;74.58;98030.48;108047;1253;61120;-62
2023/03/12 00:42:33;;;;;;;;;;;;;;;7.22;74.65;98029.01;108065;1257;75273;-63
2023/03/12 00:45:01;;;;;;;;;;;;;;;7.19;74.65;98023.29;107994;1260;71429;-62
2023/03/12 00:47:30;;;;;;;;;;;;;;;7.14;74.63;98021.27;108061;1259;73937;-62
2023/03/12 00:49:58;;;;;;;;;;;;;;;7.10;74.67;98009.60;108070;1254;61150;-62
2023/03/12 00:52:26;;;;;;;;;;;;;;;7.05;74.62;98021.00;108070;1254;61263;-62
2023/03/12 00:54:57;;;;;;;;;;;;;;;7.00;74.62;98014.67;107964;1260;73950;-63
2023/03/12 00:57:27;;;;;;;;;;;;;;;6.99;74.61;98008.17;108169;1256;73156;-63
2023/03/12 00:59:55;;;;;;;;;;;;;;;6.99;74.49;98007.02;108149;1258;72797;-63
2023/03/12 01:02:23;;;;;;;;;;;;;;;6.99;74.51;98012.63;108066;1254;61115;-64
2023/03/12 01:04:52;;;;;;;;;;;;;;;6.95;74.53;98013.99;108046;1260;61134;-63
2023/03/12 01:07:22;;;;;;;;;;;;;;;6.89;74.56;98013.46;108073;1254;73701;-62
2023/03/12 01:09:50;;;;;;;;;;;;;;;6.85;74.65;98021.60;108111;1259;72788;-62
2023/03/12 01:12:19;;;;;;;;;;;;;;;6.84;74.76;98019.14;108050;1254;72261;-63
2023/03/12 01:14:47;;;;;;;;;;;;;;;6.84;74.78;98018.92;108057;1254;62330;-63
2023/03/12 01:17:15;;;;;;;;;;;;;;;6.83;74.74;98017.88;107936;1256;61215;-62
2023/03/12 01:19:43;;;;;;;;;;;;;;;6.78;74.74;98021.52;108041;1258;76279;-63
2023/03/12 01:22:11;;;;;;;;;;;;;;;6.78;74.76;98021.04;107908;1254;72330;-62
2023/03/12 01:24:40;;;;;;;;;;;;;;;6.78;74.72;98026.77;108108;1259;72953;-62
2023/03/12 01:27:08;;;;;;;;;;;;;;;6.76;74.67;98034.19;108100;1254;61253;-62
2023/03/12 01:29:37;;;;;;;;;;;;;;;6.71;74.44;98049.02;108167;1254;61117;-62
2023/03/12 01:32:05;;;;;;;;;;;;;;;6.62;74.02;98051.99;108089;1254;75802;-62
2023/03/12 01:34:34;;;;;;;;;;;;;;;6.50;73.62;98066.41;108109;1254;73375;-63
2023/03/12 01:37:02;;;;;;;;;;;;;;;6.41;73.61;98062.58;108078;1259;73612;-62
2023/03/12 01:39:30;;;;;;;;;;;;;;;6.38;73.67;98065.23;107928;1255;61245;-62
2023/03/12 01:42:00;;;;;;;;;;;;;;;6.32;73.68;98070.10;107998;1257;61054;-62
2023/03/12 01:44:29;;;;;;;;;;;;;;;6.26;73.87;98079.27;107971;1254;74080;-63
2023/03/12 01:46:57;;;;;;;;;;;;;;;6.19;74.03;98092.41;108116;1254;72120;-61
2023/03/12 01:49:26;;;;;;;;;;;;;;;6.15;74.20;98086.80;108094;1254;73379;-62
2023/03/12 01:51:59;;;;;;;;;;;;;;;6.08;74.16;98103.27;108074;1258;61300;-63
2023/03/12 01:54:33;;;;;;;;;;;;;;;6.02;73.93;98101.88;108051;1254;61141;-66
2023/03/12 01:57:01;;;;;;;;;;;;;;;5.97;73.70;98107.08;107971;1259;75489;-62
2023/03/12 01:59:31;;;;;;;;;;;;;;;5.90;73.62;98109.68;108098;1254;73938;-62
2023/03/12 02:02:00;;;;;;;;;;;;;;;5.84;73.47;98122.80;108002;1258;71521;-62
2023/03/12 02:04:29;;;;;;;;;;;;;;;5.80;73.38;98137.85;107959;1254;62488;-62
2023/03/12 02:07:10;;;;;;;;;;;;;;;5.77;73.07;98129.52;108028;1258;61779;-62
2023/03/12 02:09:44;;;;;;;;;;;;;;;5.68;72.72;98139.65;108049;1254;74518;-62
2023/03/12 02:12:13;;;;;;;;;;;;;;;5.62;72.62;98143.59;108015;1257;71974;-62
2023/03/12 02:14:41;;;;;;;;;;;;;;;5.58;72.66;98147.34;108042;1257;73688;-61
2023/03/12 02:17:12;;;;;;;;;;;;;;;5.52;72.79;98158.85;107974;1254;61211;-61
2023/03/12 02:20:00;;;;;;;;;;;;;;;5.46;72.81;98163.89;108012;1254;61317;-61
2023/03/12 02:22:28;;;;;;;;;;;;;;;5.35;72.58;98186.83;107966;1256;72637;-62
2023/03/12 02:25:02;;;;;;;;;;;;;;;5.10;71.90;98179.29;108029;1254;71861;-62
2023/03/12 02:27:32;;;;;;;;;;;;;;;4.81;71.82;98190.77;108132;1254;72828;-61
2023/03/12 02:30:02;;;;;;;;;;;;;;;4.57;71.99;98191.26;107963;1255;59410;-61
2023/03/12 02:32:35;;;;;;;;;;;;;;;4.25;72.64;98185.33;108046;1254;61132;-61
2023/03/12 02:35:03;;;;;;;;;;;;;;;4.12;73.01;98179.23;108102;1257;74900;-62
2023/03/12 02:37:32;;;;;;;;;;;;;;;4.02;73.33;98184.03;107895;1257;73011;-60
2023/03/12 02:40:05;;;;;;;;;;;;;;;3.96;73.74;98190.45;107993;1254;72678;-60
2023/03/12 02:42:35;;;;;;;;;;;;;;;3.89;74.07;98202.10;107738;1260;61127;-61
2023/03/12 02:45:03;;;;;;;;;;;;;;;3.83;74.24;98206.88;107927;1254;61269;-61
2023/03/12 02:47:32;;;;;;;;;;;;;;;3.77;74.53;98210.43;108112;1254;75531;-61
2023/03/12 02:50:02;;;;;;;;;;;;;;;3.77;74.61;98216.93;108110;1254;74061;-62
2023/03/12 02:52:34;;;;;;;;;;;;;;;3.75;74.93;98217.31;108055;1254;73365;-62
2023/03/12 02:55:08;;;;;;;;;;;;;;;3.70;74.88;98223.34;108150;1254;61848;-61
2023/03/12 02:57:38;;;;;;;;;;;;;;;3.69;75.23;98222.08;108161;1256;60949;-61
2023/03/12 03:00:11;;;;;;;;;;;;;;;3.69;75.26;98228.64;108073;1257;74665;-61
2023/03/12 03:02:42;;;;;;;;;;;;;;;3.67;75.21;98229.11;108083;1259;74011;-62
2023/03/12 03:05:10;;;;;;;;;;;;;;;3.67;75.56;98232.28;107929;1255;71723;-63
2023/03/12 03:07:41;;;;;;;;;;;;;;;3.65;75.62;98228.27;108041;1254;61093;-61
2023/03/12 03:10:10;;;;;;;;;;;;;;;3.66;75.57;98234.39;108062;1254;61202;-61
2023/03/12 03:12:39;;;;;;;;;;;;;;;3.66;75.64;98240.20;108072;1259;75413;-62
2023/03/12 03:15:12;;;;;;;;;;;;;;;3.71;75.58;98241.35;108000;1254;72536;-61
2023/03/12 03:17:42;;;;;;;;;;;;;;;3.74;75.50;98255.59;108003;1254;72770;-60
2023/03/12 03:20:11;;;;;;;;;;;;;;;3.77;75.45;98259.23;107969;1254;62201;-60
2023/03/12 03:22:42;;;;;;;;;;;;;;;3.79;75.38;98272.75;107990;1254;61121;-61
2023/03/12 03:25:11;;;;;;;;;;;;;;;3.80;75.34;98275.48;107891;1254;73658;-61
2023/03/12 03:27:39;;;;;;;;;;;;;;;3.80;75.18;98282.19;108045;1255;72305;-61
2023/03/12 03:30:10;;;;;;;;;;;;;;;3.79;74.91;98286.54;107985;1259;73686;-62
2023/03/12 03:32:43;;;;;;;;;;;;;;;3.75;74.63;98298.36;108008;1254;61262;-62
2023/03/12 03:35:13;;;;;;;;;;;;;;;3.70;74.57;98303.70;108122;1254;61121;-61
2023/03/12 03:37:44;;;;;;;;;;;;;;;3.65;74.56;98309.79;108144;1254;73575;-62
2023/03/12 03:40:13;;;;;;;;;;;;;;;3.64;74.38;98310.42;108082;1256;72070;-61
2023/03/12 03:42:42;;;;;;;;;;;;;;;3.62;74.22;98316.45;108015;1256;71917;-60
2023/03/12 03:45:11;;;;;;;;;;;;;;;3.57;74.05;98307.94;108070;1253;61212;-61
2023/03/12 03:47:41;;;;;;;;;;;;;;;3.56;73.82;98314.34;108147;1259;59704;-61
2023/03/12 03:50:11;;;;;;;;;;;;;;;3.56;73.68;98311.39;108179;1254;74855;-63
2023/03/12 03:52:40;;;;;;;;;;;;;;;3.52;73.71;98311.98;108087;1260;73016;-62
2023/03/12 03:55:09;;;;;;;;;;;;;;;3.51;73.73;98321.16;108130;1254;73190;-61
2023/03/12 03:57:38;;;;;;;;;;;;;;;3.49;73.70;98318.95;108016;1254;61643;-62
2023/03/12 04:00:08;;;;;;;;;;;;;;;3.47;73.74;98333.13;108128;1254;61240;-62
2023/03/12 04:02:43;;;;;;;;;;;;;;;3.41;73.92;98329.39;108179;1254;74983;-62
2023/03/12 04:05:14;;;;;;;;;;;;;;;3.38;74.09;98339.68;108060;1253;72080;-61
2023/03/12 04:07:44;;;;;;;;;;;;;;;3.35;74.33;98344.96;108128;1254;73032;-61
2023/03/12 04:10:13;;;;;;;;;;;;;;;3.29;74.28;98348.02;108536;1254;61940;-61
2023/03/12 04:12:42;;;;;;;;;;;;;;;3.24;74.51;98353.35;108166;1254;61135;-62
2023/03/12 04:15:12;;;;;;;;;;;;;;;3.16;74.63;98355.08;108152;1254;74066;-60
2023/03/12 04:17:42;;;;;;;;;;;;;;;3.05;74.78;98367.15;108151;1255;72819;-61
2023/03/12 04:20:11;;;;;;;;;;;;;;;2.89;74.75;98375.33;108070;1255;72858;-64
2023/03/12 04:22:40;;;;;;;;;;;;;;;2.75;74.88;98391.59;108082;1254;61895;-63
2023/03/12 04:25:10;;;;;;;;;;;;;;;2.68;75.31;98395.09;108116;1257;61181;-62
2023/03/12 04:27:38;;;;;;;;;;;;;;;2.64;75.49;98395.24;107977;1254;74287;-62
2023/03/12 04:30:07;;;;;;;;;;;;;;;2.62;75.59;98415.26;108098;1257;71716;-63
2023/03/12 04:32:36;;;;;;;;;;;;;;;2.60;75.77;98403.88;108115;1254;72225;-62
2023/03/12 04:35:05;;;;;;;;;;;;;;;2.59;76.11;98432.48;107914;1254;61153;-61
2023/03/12 04:37:33;;;;;;;;;;;;;;;2.60;76.11;98434.17;108081;1254;61050;-62
2023/03/12 04:40:06;;;;;;;;;;;;;;;2.59;76.23;98463.17;104135;1254;5212808;-63
2023/03/12 04:42:35;;;;;;;;;;;;;;;2.54;76.17;98467.45;108029;1257;72834;-61
2023/03/12 04:45:05;;;;;;;;;;;;;;;2.47;76.22;98463.67;108008;1254;62155;-61
2023/03/12 04:47:35;;;;;;;;;;;;;;;2.44;76.37;98461.86;108051;1259;61116;-63
2023/03/12 04:50:04;;;;;;;;;;;;;;;2.39;76.40;98467.99;107760;1254;75857;-63
2023/03/12 04:52:32;;;;;;;;;;;;;;;2.36;76.32;98476.77;108593;1254;73072;-62
2023/03/12 04:55:01;;;;;;;;;;;;;;;2.38;76.33;98478.23;107886;1260;71023;-61
2023/03/12 04:57:29;;;;;;;;;;;;;;;2.39;76.33;98484.27;107890;1254;61919;-63
2023/03/12 05:00:00;;;;;;;;;;;;;;;2.38;76.41;98494.34;108031;1254;61338;-62
2023/03/12 05:02:31;;;;;;;;;;;;;;;2.38;76.43;98500.83;108058;1254;74266;-63
2023/03/12 05:04:59;;;;;;;;;;;;;;;2.34;76.29;98514.70;108022;1254;72515;-62
2023/03/12 05:07:29;;;;;;;;;;;;;;;2.32;76.08;98530.08;108091;1258;74081;-62
2023/03/12 05:10:01;;;;;;;;;;;;;;;2.30;75.96;98532.17;108039;1254;61118;-62
2023/03/12 05:12:31;;;;;;;;;;;;;;;2.26;76.49;98536.20;108151;1254;61147;-63
2023/03/12 05:14:59;;;;;;;;;;;;;;;2.24;76.97;98547.56;108102;1254;73684;-61
2023/03/12 05:17:28;;;;;;;;;;;;;;;2.28;76.01;98536.05;108075;1254;72165;-63
2023/03/12 05:19:56;;;;;;;;;;;;;;;2.28;75.55;98546.38;107942;1257;73959;-62
2023/03/12 05:22:25;;;;;;;;;;;;;;;2.29;75.51;98547.60;108100;1254;61163;-61
2023/03/12 05:24:55;;;;;;;;;;;;;;;2.27;76.33;98552.80;108081;1254;61314;-61
2023/03/12 05:27:25;;;;;;;;;;;;;;;2.26;80.45;98553.79;108024;1259;74062;-62
2023/03/12 05:29:57;;;;;;;;;;;;;;;2.26;78.32;98567.96;107914;1254;73433;-62
2023/03/12 05:32:58;;;;;;;;;;;;;;;2.29;76.21;98567.56;108051;1260;71563;-63
2023/03/12 05:35:27;;;;;;;;;;;;;;;2.31;75.63;98576.34;108034;1254;61609;-63
2023/03/12 05:37:58;;;;;;;;;;;;;;;2.31;75.35;98579.54;108183;1258;61128;-63
2023/03/12 05:40:26;;;;;;;;;;;;;;;2.30;75.15;98579.32;107971;1258;76181;-62
2023/03/12 05:42:55;;;;;;;;;;;;;;;2.31;74.99;98598.58;108076;1254;70955;-62
2023/03/12 05:45:25;;;;;;;;;;;;;;;2.35;74.88;98604.60;107974;1254;73114;-62
2023/03/12 05:47:54;;;;;;;;;;;;;;;2.36;74.53;98613.57;108202;1254;61271;-63
2023/03/12 05:50:23;;;;;;;;;;;;;;;2.34;73.92;98615.02;108036;1254;61073;-62
2023/03/12 05:52:51;;;;;;;;;;;;;;;2.33;73.83;98636.67;108001;1254;74656;-63
2023/03/12 05:55:23;;;;;;;;;;;;;;;2.31;73.20;98653.73;108013;1254;72194;-62
2023/03/12 05:57:53;;;;;;;;;;;;;;;2.31;73.19;98653.05;107994;1254;73082;-61
2023/03/12 06:00:22;;;;;;;;;;;;;;;2.32;73.22;98661.42;107876;1254;61259;-62
2023/03/12 06:02:55;;;;;;;;;;;;;;;2.34;73.22;98658.81;107869;1254;61228;-61
2023/03/12 06:05:25;;;;;;;;;;;;;;;2.34;73.12;98666.45;108158;1254;73985;-60
2023/03/12 06:07:58;;;;;;;;;;;;;;;2.33;72.94;98678.24;108051;1254;73267;-62
2023/03/12 06:10:27;;;;;;;;;;;;;;;2.32;72.95;98685.03;108190;1254;73936;-63
2023/03/12 06:12:56;;;;;;;;;;;;;;;2.34;72.97;98700.81;108086;1254;61266;-62
2023/03/12 06:15:25;;;;;;;;;;;;;;;2.34;72.99;98701.76;108065;1254;60805;-62
2023/03/12 06:17:56;;;;;;;;;;;;;;;2.35;72.84;98715.63;108062;1254;75007;-63
2023/03/12 06:20:24;;;;;;;;;;;;;;;2.37;72.96;98721.44;108089;1254;73846;-64
2023/03/12 06:22:54;;;;;;;;;;;;;;;2.41;73.03;98726.95;108087;1257;73485;-63
2023/03/12 06:25:22;;;;;;;;;;;;;;;2.43;73.11;98733.83;108098;1254;61105;-63
2023/03/12 06:27:52;;;;;;;;;;;;;;;2.45;73.34;98738.44;108104;1254;61172;-63
2023/03/12 06:30:21;;;;;;;;;;;;;;;2.48;73.47;98744.47;108075;1254;73962;-61
2023/03/12 06:32:49;;;;;;;;;;;;;;;2.50;73.41;98752.35;108092;1254;72241;-62
2023/03/12 06:35:19;;;;;;;;;;;;;;;2.50;73.46;98767.52;108107;1254;72779;-63
2023/03/12 06:37:47;;;;;;;;;;;;;;;2.47;73.55;98777.29;108121;1254;61369;-63
2023/03/12 06:40:16;;;;;;;;;;;;;;;2.43;73.79;98784.63;108124;1254;61141;-63
2023/03/12 06:42:45;;;;;;;;;;;;;;;2.38;73.57;98790.84;108040;1254;74874;-62
2023/03/12 06:45:13;;;;;;;;;;;;;;;2.37;73.71;98792.79;108135;1254;72077;-63
2023/03/12 06:47:42;;;;;;;;;;;;;;;2.37;73.83;98794.85;108104;1254;74091;-63
2023/03/12 06:50:10;;;;;;;;;;;;;;;2.36;74.27;98806.48;108082;1257;61116;-63
2023/03/12 06:52:45;;;;;;;;;;;;;;;2.35;74.17;98808.15;108086;1254;61132;-62
2023/03/12 06:55:14;;;;;;;;;;;;;;;2.35;74.30;98819.58;108102;1254;75763;-62
2023/03/12 06:57:42;;;;;;;;;;;;;;;2.34;74.51;98821.15;108033;1254;72417;-63
2023/03/12 07:00:11;;;;;;;;;;;;;;;2.33;74.45;98836.98;108059;1254;73899;-63
2023/03/12 07:02:41;;;;;;;;;;;;;;;2.31;74.61;98846.52;108100;1254;61091;-63
2023/03/12 07:05:09;;;;;;;;;;;;;;;2.33;74.65;98855.60;108071;1254;61193;-64
2023/03/12 07:07:39;;;;;;;;;;;;;;;2.33;74.65;98862.61;108108;1254;74794;-63
2023/03/12 07:10:10;;;;;;;;;;;;;;;2.35;74.92;98867.75;108104;1257;73595;-64
2023/03/12 07:12:40;;;;;;;;;;;;;;;2.37;75.02;98878.31;108086;1257;73316;-63
2023/03/12 07:15:09;;;;;;;;;;;;;;;2.36;74.71;98891.52;108124;1256;61126;-63
2023/03/12 07:17:38;;;;;;;;;;;;;;;2.33;74.61;98903.44;108124;1254;61084;-65
2023/03/12 07:20:07;;;;;;;;;;;;;;;2.33;74.37;98899.81;108074;1254;74148;-63
2023/03/12 07:22:35;;;;;;;;;;;;;;;2.37;74.35;98914.24;108115;1254;71177;-63
2023/03/12 07:25:04;;;;;;;;;;;;;;;2.38;74.25;98907.84;108116;1254;72160;-64
2023/03/12 07:27:32;;;;;;;;;;;;;;;2.39;74.06;98926.76;108121;1254;61438;-64
2023/03/12 07:30:01;;;;;;;;;;;;;;;2.39;74.00;98927.39;108093;1254;61109;-64
2023/03/12 07:32:32;;;;;;;;;;;;;;;2.38;73.84;98940.23;108063;1259;74729;-63
2023/03/12 07:35:00;;;;;;;;;;;;;;;2.35;73.72;98942.52;108076;1254;73675;-63
2023/03/12 07:37:29;;;;;;;;;;;;;;;2.37;73.77;98958.89;108147;1254;73781;-63
2023/03/12 07:39:57;;;;;;;;;;;;;;;2.40;73.77;98958.13;108083;1258;62427;-63
2023/03/12 07:42:31;;;;;;;;;;;;;;;2.42;73.55;98960.63;108121;1254;61109;-64
2023/03/12 07:45:00;;;;;;;;;;;;;;;2.50;73.65;98965.48;108121;1254;73878;-63
2023/03/12 07:47:28;;;;;;;;;;;;;;;2.59;73.56;98970.94;108162;1253;72464;-63
2023/03/12 07:49:57;;;;;;;;;;;;;;;2.66;73.60;98986.70;108125;1254;71846;-63
2023/03/12 07:52:26;;;;;;;;;;;;;;;2.68;73.39;98989.51;108130;1254;61424;-63
2023/03/12 07:54:55;;;;;;;;;;;;;;;2.72;73.40;98995.98;108090;1254;61189;-63
2023/03/12 07:57:23;;;;;;;;;;;;;;;2.73;73.63;99001.86;108092;1254;75630;-64
2023/03/12 07:59:53;;;;;;;;;;;;;;;2.73;73.77;99007.44;108099;1254;74117;-63
2023/03/12 08:02:22;;;;;;;;;;;;;;;2.70;73.59;99018.79;108064;1254;73874;-64
2023/03/12 08:04:51;;;;;;;;;;;;;;;2.66;72.96;99028.61;108076;1254;60263;-65
2023/03/12 08:07:20;;;;;;;;;;;;;;;2.69;73.09;99029.85;108136;1254;61339;-65
2023/03/12 08:09:48;;;;;;;;;;;;;;;2.72;72.41;99035.32;108136;1254;74287;-65
2023/03/12 08:12:21;;;;;;;;;;;;;;;2.75;72.00;99041.02;108116;1254;72255;-64
2023/03/12 08:14:49;;;;;;;;;;;;;;;2.84;72.37;99044.30;108102;1254;70869;-63
2023/03/12 08:17:19;;;;;;;;;;;;;;;2.94;72.13;99045.77;108102;1254;61253;-62
2023/03/12 08:19:47;;;;;;;;;;;;;;;3.04;71.50;99047.74;108131;1254;61112;-64
2023/03/12 08:22:16;;;;;;;;;;;;;;;3.14;71.00;99050.77;108084;1256;74897;-64
2023/03/12 08:24:44;;;;;;;;;;;;;;;3.31;70.66;99054.65;108098;1254;72611;-62
2023/03/12 08:27:14;;;;;;;;;;;;;;;3.41;69.05;99072.41;108120;1254;73795;-63
2023/03/12 08:29:44;;;;;;;;;;;;;;;3.47;68.45;99074.52;108081;1254;61233;-63
2023/03/12 08:32:15;;;;;;;;;;;;;;;3.54;68.00;99073.11;108120;1254;61145;-63
2023/03/12 08:34:45;;;;;;;;;;;;;;;3.55;67.64;99077.27;108101;1254;73940;-63
2023/03/12 08:37:13;;;;;;;;;;;;;;;3.56;67.11;99077.65;108114;1253;72401;-63
2023/03/12 08:39:42;;;;;;;;;;;;;;;3.54;66.50;99084.23;108061;1254;73884;-62
2023/03/12 08:42:10;;;;;;;;;;;;;;;3.48;65.92;99093.13;108109;1254;61243;-62
2023/03/12 08:44:39;;;;;;;;;;;;;;;3.48;65.88;99113.20;108101;1254;61148;-62
2023/03/12 08:47:07;;;;;;;;;;;;;;;3.52;65.08;99116.73;108102;1254;75863;-62
2023/03/12 08:49:35;;;;;;;;;;;;;;;3.56;64.56;99120.57;108133;1254;73767;-63
2023/03/12 08:52:04;;;;;;;;;;;;;;;3.56;63.50;99128.80;108093;1254;73122;-61
2023/03/12 08:54:33;;;;;;;;;;;;;;;3.49;62.31;99130.67;108117;1254;61150;-61
2023/03/12 08:57:02;;;;;;;;;;;;;;;3.46;62.48;99130.75;108094;1254;61097;-62
2023/03/12 08:59:31;;;;;;;;;;;;;;;3.44;61.89;99149.24;108104;1254;73811;-62
2023/03/12 09:02:00;;;;;;;;;;;;;;;3.42;61.42;99150.48;108111;1254;73347;-61
2023/03/12 09:04:30;;;;;;;;;;;;;;;3.34;60.85;99147.05;108041;1254;70498;-61
2023/03/12 09:07:00;;;;;;;;;;;;;;;3.33;61.27;99160.30;108108;1254;61199;-61
2023/03/12 09:09:29;;;;;;;;;;;;;;;3.36;61.08;99167.46;108068;1254;61250;-61
2023/03/12 09:11:58;;;;;;;;;;;;;;;3.33;60.67;99176.60;108130;1254;74704;-62
2023/03/12 09:14:27;;;;;;;;;;;;;;;3.31;60.59;99181.95;108048;1254;72988;-62
2023/03/12 09:17:16;;;;;;;;;;;;;;;3.34;60.19;99194.55;108103;1257;71563;-61
2023/03/12 09:19:44;;;;;;;;;;;;;;;3.35;60.02;99201.88;107998;1254;61250;-63
2023/03/12 09:22:16;;;;;;;;;;;;;;;3.39;60.03;99208.05;108022;1254;61206;-64
2023/03/12 09:24:45;;;;;;;;;;;;;;;3.41;59.37;99202.00;108077;1254;75081;-61
2023/03/12 09:27:14;;;;;;;;;;;;;;;3.44;59.20;99208.05;108105;1254;72287;-61
2023/03/12 09:29:44;;;;;;;;;;;;;;;3.48;59.05;99216.67;108086;1254;72913;-62
2023/03/12 09:32:28;;;;;;;;;;;;;;;3.58;59.79;99224.71;108137;1254;62255;-62
2023/03/12 09:35:02;;;;;;;;;;;;;;;3.64;59.11;99240.42;108100;1254;61127;-63
2023/03/12 09:37:32;;;;;;;;;;;;;;;3.65;58.72;99248.00;108032;1254;75650;-64
2023/03/12 09:40:01;;;;;;;;;;;;;;;3.64;57.96;99251.05;108156;1254;72701;-63
2023/03/12 09:42:30;;;;;;;;;;;;;;;3.54;57.35;99255.30;108014;1254;73203;-62
2023/03/12 09:44:59;;;;;;;;;;;;;;;3.56;58.03;99257.70;108062;1254;61222;-67
2023/03/12 09:47:34;;;;;;;;;;;;;;;3.61;57.97;99264.46;108051;1254;61112;-64
2023/03/12 09:50:12;;;;;;;;;;;;;;;3.63;58.28;99276.73;108047;1254;75811;-63
2023/03/12 09:52:43;;;;;;;;;;;;;;;3.58;57.03;99295.10;108052;1257;73651;-63
2023/03/12 09:55:21;;;;;;;;;;;;;;;3.55;56.27;99291.35;108021;1254;73227;-62
2023/03/12 09:57:50;;;;;;;;;;;;;;;3.60;57.24;99302.16;108064;1254;61110;-63
2023/03/12 10:00:20;;;;;;;;;;;;;;;3.63;57.22;99306.70;108057;1254;61132;-63
2023/03/12 10:03:03;;;;;;;;;;;;;;;3.70;57.46;99311.70;108124;1254;73364;-63
2023/03/12 10:05:55;;;;;;;;;;;;;;;3.74;56.84;99321.48;108014;1254;74130;-63
2023/03/12 10:08:23;;;;;;;;;;;;;;;3.71;55.92;99325.71;107970;1254;71866;-62
2023/03/12 10:11:02;;;;;;;;;;;;;;;3.71;56.16;99330.26;108067;1254;61198;-63
2023/03/12 10:13:34;;;;;;;;;;;;;;;3.78;56.52;99333.42;108079;1257;61333;-63
2023/03/12 10:16:15;;;;;;;;;;;;;;;3.93;56.58;99339.83;108068;1254;74548;-64
2023/03/12 10:19:07;;;;;;;;;;;;;;;4.04;56.50;99332.99;108016;1254;73589;-62
2023/03/12 10:21:41;;;;;;;;;;;;;;;4.12;55.47;99341.93;108002;1254;72064;-63
2023/03/12 10:24:16;;;;;;;;;;;;;;;4.27;56.09;99339.63;108137;1254;61154;-63
2023/03/12 10:26:48;;;;;;;;;;;;;;;4.34;55.08;99350.39;108067;1254;61121;-62
2023/03/12 10:29:18;;;;;;;;;;;;;;;4.37;55.07;99348.65;108038;1253;75559;-63
2023/03/12 10:31:48;;;;;;;;;;;;;;;4.49;55.16;99358.58;108388;1254;73899;-63
2023/03/12 10:34:19;;;;;;;;;;;;;;;4.56;54.01;99354.52;108065;1257;71690;-63
2023/03/12 10:36:52;;;;;;;;;;;;;;;4.48;52.78;99352.59;108067;1254;61231;-64
2023/03/12 10:39:21;;;;;;;;;;;;;;;4.47;53.57;99357.02;108073;1254;60290;-62
2023/03/12 10:41:49;;;;;;;;;;;;;;;4.43;53.71;99356.22;108147;1254;74116;-62
2023/03/12 10:44:20;;;;;;;;;;;;;;;4.39;54.45;99359.93;107989;1254;73393;-63
2023/03/12 10:47:13;;;;;;;;;;;;;;;4.33;54.34;99356.31;108064;1254;73625;-64
2023/03/12 10:49:49;;;;;;;;;;;;;;;4.26;54.22;99368.69;108073;1254;61819;-64
2023/03/12 10:52:20;;;;;;;;;;;;;;;4.13;54.41;99344.96;108143;1254;61346;-63
2023/03/12 10:54:56;;;;;;;;;;;;;;;4.15;54.83;99351.20;108087;1254;74772;-64
2023/03/12 10:57:26;;;;;;;;;;;;;;;4.24;55.59;99359.54;107990;1254;73280;-63
2023/03/12 10:59:54;;;;;;;;;;;;;;;4.35;55.48;99362.00;107943;1254;72140;-64
2023/03/12 11:02:26;;;;;;;;;;;;;;;4.37;53.99;99360.07;107959;1254;61932;-65
2023/03/12 11:04:55;;;;;;;;;;;;;;;4.37;53.60;99370.79;108141;1254;60262;-64
2023/03/12 11:07:26;;;;;;;;;;;;;;;4.27;53.04;99374.58;108076;1254;75291;-64
2023/03/12 11:10:07;;;;;;;;;;;;;;;4.20;53.17;99378.71;108080;1254;71725;-65
2023/03/12 11:12:39;;;;;;;;;;;;;;;4.15;53.36;99380.18;108037;1254;72872;-63
2023/03/12 11:15:31;;;;;;;;;;;;;;;4.16;53.44;99384.75;107937;1254;62190;-64
2023/03/12 11:18:20;;;;;;;;;;;;;;;4.26;53.86;99396.82;108096;1254;61261;-64
2023/03/12 11:20:51;;;;;;;;;;;;;;;4.41;53.39;99397.71;108038;1257;74576;-63
2023/03/12 11:23:25;;;;;;;;;;;;;;;4.57;52.94;99404.52;107962;1254;72306;-64
2023/03/12 11:25:59;;;;;;;;;;;;;;;4.59;52.15;99402.80;108100;1257;71893;-65
2023/03/12 11:28:31;;;;;;;;;;;;;;;4.61;53.27;99396.00;108085;1254;61224;-65
2023/03/12 11:31:00;;;;;;;;;;;;;;;4.73;53.34;99401.02;107910;1254;61247;-64
2023/03/12 11:33:30;;;;;;;;;;;;;;;4.84;52.84;99413.36;108191;1254;72536;-63
2023/03/12 11:36:08;;;;;;;;;;;;;;;4.89;52.90;99413.20;108041;1254;72989;-63
2023/03/12 11:38:48;;;;;;;;;;;;;;;4.90;51.73;99417.30;108062;1254;72698;-63
2023/03/12 11:41:43;;;;;;;;;;;;;;;4.99;51.53;99422.27;108112;1254;60644;-64
2023/03/12 11:44:47;;;;;;;;;;;;;;;5.00;51.26;99420.90;107906;1254;61317;-62
2023/03/12 11:47:39;;;;;;;;;;;;;;;4.96;50.63;99421.59;107780;1254;74968;-63
2023/03/12 11:50:25;;;;;;;;;;;;;;;5.00;51.12;99432.23;108097;1258;73810;-64
2023/03/12 11:53:13;;;;;;;;;;;;;;;5.12;51.12;99430.83;108014;1254;73469;-62
2023/03/12 11:55:53;;;;;;;;;;;;;;;5.23;51.66;99434.80;108076;1256;61093;-61
2023/03/12 11:58:26;;;;;;;;;;;;;;;5.27;50.92;99444.70;108097;1254;61142;-61
2023/03/12 12:01:21;;;;;;;;;;;;;;;5.30;50.53;99452.63;108109;1254;75658;-62
2023/03/12 12:04:03;;;;;;;;;;;;;;;5.35;51.07;99441.87;108137;1254;73746;-61
2023/03/12 12:06:38;;;;;;;;;;;;;;;5.38;50.82;99453.55;108051;1254;71910;-63
2023/03/12 12:09:17;;;;;;;;;;;;;;;5.37;50.53;99451.21;108049;1254;61208;-61
2023/03/12 12:11:49;;;;;;;;;;;;;;;5.49;50.74;99447.29;108092;1256;61248;-62
2023/03/12 12:14:24;;;;;;;;;;;;;;;5.56;50.36;99448.16;108085;1257;75537;-63
2023/03/12 12:17:00;;;;;;;;;;;;;;;5.62;49.95;99463.30;108089;1255;73203;-62
2023/03/12 12:19:35;;;;;;;;;;;;;;;5.61;49.29;99466.91;107969;1254;72338;-62
2023/03/12 12:22:23;;;;;;;;;;;;;;;5.64;50.00;99473.02;100458;1256;10002346;-63
2023/03/12 12:25:14;;;;;;;;;;;;;;;5.69;49.82;99474.14;92825;1257;20003007;-65
2023/03/12 12:27:48;;;;;;;;;;;;;;;5.78;49.53;99487.20;107901;1256;75616;-63
2023/03/12 12:30:25;;;;;;;;;;;;;;;5.78;49.39;99484.19;107809;1257;72879;-62
2023/03/12 12:33:02;;;;;;;;;;;;;;;5.81;49.44;99489.91;107749;1257;71802;-63
2023/03/12 12:35:41;;;;;;;;;;;;;;;5.85;49.27;99483.66;107755;1257;61266;-63
2023/03/12 12:38:12;;;;;;;;;;;;;;;5.83;48.95;99498.22;107800;1256;61896;-62
2023/03/12 12:40:41;;;;;;;;;;;;;;;5.78;49.33;99484.85;92572;1257;10002117;-61
2023/03/12 12:43:24;;;;;;;;;;;;;;;5.74;49.66;99499.55;107784;1256;61202;-63
2023/03/12 12:45:54;;;;;;;;;;;;;;;5.71;49.34;99501.65;107718;1257;61202;-64
2023/03/12 12:48:24;;;;;;;;;;;;;;;5.73;49.60;99508.67;109003;1256;74279;-61
2023/03/12 12:50:53;;;;;;;;;;;;;;;5.72;49.01;99503.14;107680;1256;72070;-62
2023/03/12 12:53:23;;;;;;;;;;;;;;;5.71;49.24;99509.17;107816;1258;73452;-63
2023/03/12 12:56:00;;;;;;;;;;;;;;;5.67;49.39;99518.89;107797;1254;61119;-63
2023/03/12 12:58:29;;;;;;;;;;;;;;;5.60;49.72;99513.52;107805;1257;61132;-63
2023/03/12 13:01:02;;;;;;;;;;;;;;;5.55;50.42;99509.97;107859;1256;74898;-62
2023/03/12 13:03:32;;;;;;;;;;;;;;;5.52;50.71;99513.55;108005;1258;72858;-64
2023/03/12 13:06:01;;;;;;;;;;;;;;;5.48;51.26;99515.56;107937;1257;71800;-64